AirNav   Everest Fuels
 
 1567 users online  

OH81 Springfield Regional Medical Center Heliport
Springfield, Ohio, USA

GOING TO SPRINGFIELD?


FAA INFORMATION EFFECTIVE 30 DECEMBER 2021

Location

FAA Identifier: OH81
Lat/Long: 39-55-43.5084N 083-49-03.0622W
39-55.725140N 083-49.051037W
39.9287523,-83.8175173
(estimated)
Elevation: 969 ft. / 295 m (estimated)
Time zone: UTC -5 (UTC -4 during Daylight Saving Time)
Zip code: 45502

Heliport Operations

Heliport use: Private use. Permission required prior to landing
Activation date: 06/2015
Control tower: no
ARTCC: INDIANAPOLIS CENTER
FSS: DAYTON FLIGHT SERVICE STATION
Attendance: UNATNDD
Wind indicator: lighted
Segmented circle: no

Heliport Communications

WX AWOS-3PT at SGH (5 nm S): 134.975 (937-324-4532)
WX AWOS-3 at I74 (13 nm N): 118.325 (937-484-5863)
WX AWOS-3PT at UYF (16 nm E): 120.85 (740-852-2844)
WX AWOS-3 at I19 (16 nm SW): 118.525 (937-372-4668)
WX ASOS at DAY (19 nm W): PHONE 937-415-6819

Nearby radio navigation aids

VOR radial/distance  VOR name  Freq  Var
RODr159/23.9ROSEWOOD VORTAC117.5005W
DQNr102/27.2DAYTON VOR/DME114.5001W
MXQr003/30.0MIDWEST VOR/DME112.9004W

 
NDB name  Hdg/Dist  Freq  Var  ID
COURT HOUSE321/27.841406WCSS -.-. ... ...
HOOK FIELD052/38.923904WHKF .... -.- ..-.

Heliport Services

Runway Information

Helipad H1

Dimensions: 44 x 44 ft. / 13 x 13 m
Surface: concrete/gravel
Runway edge lights: PERI
Latitude: 39-55.725140N
Longitude: 083-49.051037W
Elevation: 969.0 ft.
Traffic pattern: leftleft

Heliport Ownership and Management from official FAA records

Ownership: Privately-owned
Owner: SPRINGFIELD REGIONAL MEDICAL CENTER
100 WEST STREET
SPRINGFIELD, OH 45502
Phone 937-523-1000
Manager: BETH CALCIDISE
ONE WYOMING STREET
DAYTON, OH 45409
Phone 937-208-4347
ADDITIONAL CONTACT: KEITH SHIVERS 7309 WATERWAY DR WAYNESVILLE, OH 937-269-4033

Additional Remarks

FOR CD CTC INDIANAPOLIS ARTCC AT 317-247-2411.

Instrument Procedures

There are no published instrument procedures at OH81.

Some nearby airports with instrument procedures:

KSGH - Springfield/Beckley Municipal Airport (5 nm S)
KFFO - Wright-Patterson Air Force Base (12 nm SW)
I74 - Grimes Field Airport (13 nm N)
KUYF - Madison County Airport (16 nm E)
I19 - Greene County/Lewis A Jackson Regional Airport (16 nm SW)
KDAY - James M Cox Dayton International Airport (19 nm W)
 
Loc | Ops | Rwys | IFR | FBO | Links
Com | Nav | Svcs | Stats | Notes
Aerial photo
No photo
 
Airport distance calculator
Flying to Springfield Regional Medical Center Heliport? Find the distance to fly.

From to OH81

Sunrise and sunset
Times for 20-Jan-2022
 Local
(UTC-5)
 Zulu
(UTC)
Morning civil twilight07:2412:24
Sunrise07:5412:54
Sunset17:3922:39
Evening civil twilight18:0823:08

Current date and time
Zulu (UTC)  20-Jan-2022 23:46:02
Local (UTC-5)  20-Jan-2022 18:46:02
 
METAR
KSGH 
7nm S 
202256Z AUTO 02011KT 9SM -SN OVC035 M07/M13 A3044 RMK AO2 SNB54 SLP327 T10671128 FZRANO PNO $
KFFO 
12nm SW 
202256Z 02007KT 10SM OVC038 M06/M16 A3045 RMK AO2A SLP329 T10571160
KI74 
13nm N 
202335Z AUTO 04009KT 10SM OVC033 M07/M12 A3045 RMK AO2
KUYF 
16nm E 
202335Z AUTO 02010KT 10SM SCT020 SCT026 OVC035 M07/M13 A3044 RMK AO2
KDAY 
18nm W 
202256Z 03012KT 10SM OVC039 M06/M16 A3045 RMK AO2 SLP330 T10611156
TAF
KFFO 
12nm SW 
201900Z 2019/2201 36012KT 9999 SCT040 SCT200 QNH3041INS BECMG 2102/2103 04009KT 9999 FEW180 QNH3045INS BECMG 2112/2113 04009KT 9999 SCT030 QNH3046INS TXM03/2019Z TNM11/2111Z
KDAY 
18nm W 
201730Z 2018/2118 01013KT P6SM SCT040 SCT250 FM210100 02007KT P6SM FEW090 FM210600 04006KT P6SM SKC FM211500 06006KT P6SM SCT040
NOTAMs
Click for the latest NOTAMs
NOTAMs are issued by the DoD/FAA and will open in a separate window not controlled by AirNav.

 

 
 

Would you like to see your business listed on this page?

 If your business provides an interesting product or service to pilots, flight crews, aircraft, or users of the Springfield Regional Medical Center Heliport, you should consider listing it here.  To start the listing process, click on the button below
 
Add a business
 

Other Pages about Springfield Regional Medical Center Heliport

Update a link
 
Copyright © AirNav, LLC. All rights reserved. Privacy Policy  Contact